createdAt,value
2023-01-28T00:01:06.452Z,81.82
2023-01-28T00:03:35.344Z,82.27
2023-01-28T00:06:04.346Z,82.42
2023-01-28T00:08:34.780Z,82.18
2023-01-28T00:11:04.817Z,81.95
2023-01-28T00:13:33.996Z,82.11
2023-01-28T00:16:04.917Z,81.91
2023-01-28T00:18:33.641Z,81.90
2023-01-28T00:21:03.328Z,82.42
2023-01-28T00:23:34.605Z,82.39
2023-01-28T00:26:05.968Z,82.69
2023-01-28T00:28:34.409Z,82.35
2023-01-28T00:31:07.962Z,82.29
2023-01-28T00:33:36.208Z,82.47
2023-01-28T00:36:06.714Z,82.26
2023-01-28T00:38:36.397Z,82.47
2023-01-28T00:41:11.180Z,82.54
2023-01-28T00:43:39.752Z,82.38
2023-01-28T00:46:08.733Z,82.43
2023-01-28T00:48:37.034Z,82.50
2023-01-28T00:51:05.659Z,82.75
2023-01-28T00:53:34.630Z,82.67
2023-01-28T00:56:04.736Z,82.56
2023-01-28T00:58:34.469Z,82.90
2023-01-28T01:01:08.508Z,82.81
2023-01-28T01:03:37.068Z,82.90
2023-01-28T01:06:06.041Z,82.87
2023-01-28T01:08:40.111Z,82.76
2023-01-28T01:11:11.168Z,82.66
2023-01-28T01:13:40.108Z,82.68
2023-01-28T01:16:10.279Z,82.75
2023-01-28T01:18:41.898Z,82.77
2023-01-28T01:21:12.059Z,82.49
2023-01-28T01:23:40.590Z,82.71
2023-01-28T01:26:10.377Z,82.64
2023-01-28T01:28:38.818Z,82.92
2023-01-28T01:31:09.574Z,82.73
2023-01-28T01:33:39.836Z,82.38
2023-01-28T01:36:09.045Z,82.86
2023-01-28T01:38:38.034Z,82.72
2023-01-28T01:41:06.566Z,82.82
2023-01-28T01:43:50.891Z,82.60
2023-01-28T01:46:23.348Z,82.53
2023-01-28T01:48:52.111Z,82.98
2023-01-28T01:51:23.332Z,82.97
2023-01-28T01:53:54.387Z,82.87
2023-01-28T01:56:25.391Z,82.79
2023-01-28T01:58:57.128Z,82.45
2023-01-28T02:01:28.862Z,82.61
2023-01-28T02:04:02.401Z,82.78
2023-01-28T02:06:31.289Z,83.03
2023-01-28T02:09:00.320Z,83.10
2023-01-28T02:11:30.680Z,83.21
2023-01-28T02:14:04.098Z,82.94
2023-01-28T02:16:33.439Z,82.94
2023-01-28T02:19:01.796Z,83.08
2023-01-28T02:21:48.085Z,83.35
2023-01-28T02:24:30.513Z,83.24
2023-01-28T02:27:12.283Z,83.26
2023-01-28T02:29:45.741Z,83.07
2023-01-28T02:32:16.980Z,83.25
2023-01-28T02:34:48.164Z,83.58
2023-01-28T02:37:18.778Z,83.79
2023-01-28T02:39:50.167Z,83.36
2023-01-28T02:42:21.178Z,83.88
2023-01-28T02:44:50.743Z,83.92
2023-01-28T02:47:36.926Z,83.89
2023-01-28T02:50:08.415Z,83.76
2023-01-28T02:53:05.676Z,84.30
2023-01-28T02:55:41.181Z,83.79
2023-01-28T02:58:12.569Z,84.15
2023-01-28T03:00:47.445Z,83.89
2023-01-28T03:03:19.087Z,84.28
2023-01-28T03:06:04.194Z,84.32
2023-01-28T03:08:53.684Z,84.02
2023-01-28T03:11:39.753Z,84.70
2023-01-28T03:14:27.579Z,84.62
2023-01-28T03:17:18.671Z,84.57
2023-01-28T03:20:04.848Z,84.32
2023-01-28T03:22:53.468Z,84.23
2023-01-28T03:25:40.077Z,84.36
2023-01-28T03:28:30.145Z,84.62
2023-01-28T03:31:21.762Z,84.72
2023-01-28T03:34:12.652Z,84.51
2023-01-28T03:36:53.306Z,85.06
2023-01-28T03:39:40.264Z,85.04
2023-01-28T03:42:13.807Z,85.09
2023-01-28T03:45:09.034Z,85.31
2023-01-28T03:47:40.495Z,85.82
2023-01-28T03:50:12.383Z,85.78
2023-01-28T03:52:51.071Z,85.82
2023-01-28T03:55:30.555Z,85.83
2023-01-28T03:57:58.721Z,86.18
2023-01-28T04:00:27.470Z,86.41
2023-01-28T04:02:56.946Z,86.13
2023-01-28T04:05:27.132Z,86.54
2023-01-28T04:07:55.778Z,86.85
2023-01-28T04:10:48.781Z,86.82
2023-01-28T04:13:24.611Z,86.90
2023-01-28T04:15:53.175Z,86.76
2023-01-28T04:18:27.266Z,86.53
2023-01-28T04:20:58.906Z,86.94
2023-01-28T04:23:28.193Z,87.03
2023-01-28T04:25:56.432Z,87.09
2023-01-28T04:28:24.814Z,87.10
2023-01-28T04:30:53.569Z,86.93
2023-01-28T04:33:35.117Z,87.22
2023-01-28T04:36:24.940Z,87.86
2023-01-28T04:39:11.369Z,87.85
2023-01-28T04:41:47.636Z,87.76
2023-01-28T04:44:22.121Z,87.85
2023-01-28T04:47:09.017Z,87.93
2023-01-28T04:49:52.091Z,88.14
2023-01-28T04:52:34.726Z,87.86
2023-01-28T04:55:10.728Z,87.78
2023-01-28T04:57:38.837Z,88.47
2023-01-28T05:00:10.069Z,88.41
2023-01-28T05:02:38.204Z,88.17
2023-01-28T05:05:08.961Z,88.37
2023-01-28T05:08:01.561Z,88.83
2023-01-28T05:10:30.600Z,88.90
2023-01-28T05:12:59.324Z,88.56
2023-01-28T05:15:27.386Z,88.55
2023-01-28T05:17:57.245Z,88.72
2023-01-28T05:20:26.676Z,89.04
2023-01-28T05:22:57.709Z,89.02
2023-01-28T05:25:32.407Z,89.04
2023-01-28T05:28:00.470Z,89.41
2023-01-28T05:30:28.884Z,88.95
2023-01-28T05:32:57.898Z,88.48
2023-01-28T05:35:26.616Z,88.83
2023-01-28T05:37:54.807Z,88.85
2023-01-28T05:40:23.566Z,89.23
2023-01-28T05:42:54.014Z,89.18
2023-01-28T05:45:27.812Z,89.29
2023-01-28T05:48:09.493Z,89.55
2023-01-28T05:50:58.209Z,89.77
2023-01-28T05:53:37.844Z,89.89
2023-01-28T05:56:07.762Z,89.94
2023-01-28T05:58:38.896Z,89.95
2023-01-28T06:01:07.354Z,89.58
2023-01-28T06:03:43.130Z,89.54
2023-01-28T06:06:11.278Z,89.81
2023-01-28T06:08:39.467Z,90.10
2023-01-28T06:11:07.815Z,90.19
2023-01-28T06:13:37.941Z,90.38
2023-01-28T06:16:24.880Z,90.40
2023-01-28T06:19:21.845Z,90.45
2023-01-28T06:21:49.970Z,90.38
2023-01-28T06:24:19.832Z,90.37
2023-01-28T06:26:48.018Z,90.44
2023-01-28T06:29:17.896Z,90.20
2023-01-28T06:31:45.956Z,90.50
2023-01-28T06:34:15.391Z,90.17
2023-01-28T06:36:43.708Z,90.86
2023-01-28T06:39:12.109Z,90.67
2023-01-28T06:41:41.089Z,90.56
2023-01-28T06:44:09.787Z,90.31
2023-01-28T06:46:39.606Z,90.53
2023-01-28T06:49:07.776Z,90.27
2023-01-28T06:51:35.903Z,90.71
2023-01-28T06:54:04.211Z,90.60
2023-01-28T06:56:32.423Z,90.62
2023-01-28T06:59:00.511Z,90.36
2023-01-28T07:01:28.807Z,90.45
2023-01-28T07:03:58.815Z,90.38
2023-01-28T07:06:27.024Z,90.54
2023-01-28T07:08:55.142Z,90.60
2023-01-28T07:11:23.492Z,90.90
2023-01-28T07:13:51.707Z,91.07
2023-01-28T07:16:19.785Z,91.41
2023-01-28T07:18:47.954Z,91.04
2023-01-28T07:21:17.438Z,91.15
2023-01-28T07:23:46.527Z,90.90
2023-01-28T07:26:15.464Z,91.24
2023-01-28T07:28:43.821Z,90.99
2023-01-28T07:31:12.077Z,90.95
2023-01-28T07:33:40.540Z,91.45
2023-01-28T07:36:09.186Z,91.18
2023-01-28T07:38:38.855Z,90.99
2023-01-28T07:41:07.943Z,91.07
2023-01-28T07:43:36.384Z,91.42
2023-01-28T07:46:04.658Z,91.49
2023-01-28T07:48:32.898Z,91.58
2023-01-28T07:51:01.556Z,91.74
2023-01-28T07:53:29.761Z,91.65
2023-01-28T07:56:02.745Z,91.62
2023-01-28T07:58:32.551Z,91.91
2023-01-28T08:01:00.797Z,91.92
2023-01-28T08:03:29.575Z,92.30
2023-01-28T08:05:58.263Z,92.41
2023-01-28T08:08:27.758Z,92.13
2023-01-28T08:10:55.863Z,92.65
2023-01-28T08:13:25.594Z,92.71
2023-01-28T08:15:57.043Z,92.80
2023-01-28T08:18:25.275Z,92.55
2023-01-28T08:20:56.487Z,93.04
2023-01-28T08:23:26.935Z,92.85
2023-01-28T08:25:55.489Z,93.29
2023-01-28T08:28:25.108Z,92.46
2023-01-28T08:30:53.692Z,92.87
2023-01-28T08:33:22.019Z,93.07
2023-01-28T08:35:50.265Z,92.54
2023-01-28T08:38:20.287Z,92.66
2023-01-28T08:40:50.407Z,93.10
2023-01-28T08:43:18.505Z,92.33
2023-01-28T08:45:48.231Z,92.36
2023-01-28T08:48:18.431Z,92.44
2023-01-28T08:50:46.796Z,92.54
2023-01-28T08:53:16.907Z,91.58
2023-01-28T08:55:45.454Z,92.01
2023-01-28T08:58:14.890Z,92.66
2023-01-28T09:00:43.670Z,91.37
2023-01-28T09:03:13.293Z,91.85
2023-01-28T09:05:41.935Z,90.46
2023-01-28T09:08:12.065Z,90.24
2023-01-28T09:10:41.940Z,89.71
2023-01-28T09:13:11.789Z,89.61
2023-01-28T09:15:40.048Z,89.39
2023-01-28T09:18:08.412Z,89.25
2023-01-28T09:20:38.016Z,89.77
2023-01-28T09:23:06.364Z,89.29
2023-01-28T09:25:36.242Z,89.42
2023-01-28T09:28:04.663Z,89.62
2023-01-28T09:30:34.474Z,89.17
2023-01-28T09:33:04.415Z,89.18
2023-01-28T09:35:32.669Z,88.73
2023-01-28T09:38:02.183Z,87.96
2023-01-28T09:40:34.477Z,88.10
2023-01-28T09:43:35.361Z,88.80
2023-01-28T09:46:06.374Z,87.73
2023-01-28T09:48:38.135Z,86.99
2023-01-28T09:51:09.648Z,87.27
2023-01-28T09:53:42.299Z,87.44
2023-01-28T09:56:14.671Z,87.26
2023-01-28T09:58:42.945Z,86.01
2023-01-28T10:01:33.169Z,86.06
2023-01-28T10:04:07.248Z,86.41
2023-01-28T10:06:44.241Z,85.80
2023-01-28T10:09:22.593Z,86.09
2023-01-28T10:12:09.726Z,85.82
2023-01-28T10:14:47.965Z,85.26
2023-01-28T10:17:19.065Z,85.26
2023-01-28T10:19:49.585Z,84.81
2023-01-28T10:22:20.721Z,84.82
2023-01-28T10:24:52.237Z,85.13
2023-01-28T10:27:21.499Z,85.71
2023-01-28T10:29:51.141Z,85.36
2023-01-28T10:32:24.796Z,85.62
2023-01-28T10:34:53.251Z,85.59
2023-01-28T10:37:22.214Z,86.23
2023-01-28T10:39:59.726Z,86.60
2023-01-28T10:42:29.323Z,86.19
2023-01-28T10:44:59.587Z,86.45
2023-01-28T10:47:31.267Z,86.27
2023-01-28T10:50:00.900Z,86.42
2023-01-28T10:52:29.075Z,86.39
2023-01-28T10:55:02.326Z,86.88
2023-01-28T10:57:31.006Z,87.22
2023-01-28T10:59:59.322Z,87.21
2023-01-28T11:02:32.232Z,88.54
2023-01-28T11:05:07.111Z,89.01
2023-01-28T11:07:35.255Z,88.51
2023-01-28T11:10:05.106Z,88.78
2023-01-28T11:12:33.189Z,88.89
2023-01-28T11:15:02.947Z,88.94
2023-01-28T11:17:33.433Z,89.32
2023-01-28T11:20:03.337Z,88.88
2023-01-28T11:22:34.534Z,87.83
2023-01-28T11:25:07.718Z,86.33
2023-01-28T11:27:35.961Z,84.62
2023-01-28T11:30:04.946Z,84.95
2023-01-28T11:32:33.285Z,85.25
2023-01-28T11:35:01.505Z,84.26
2023-01-28T11:37:30.080Z,83.73
2023-01-28T11:40:21.713Z,83.25
2023-01-28T11:42:51.909Z,81.65
2023-01-28T11:45:22.334Z,81.89
2023-01-28T11:48:08.340Z,81.40
2023-01-28T11:50:42.905Z,81.16
2023-01-28T11:53:27.155Z,81.24
2023-01-28T11:56:08.638Z,81.96
2023-01-28T11:58:45.197Z,81.96
2023-01-28T12:01:16.745Z,81.71
2023-01-28T12:03:57.085Z,81.77
2023-01-28T12:06:37.805Z,80.02
2023-01-28T12:09:15.048Z,79.94
2023-01-28T12:12:11.010Z,79.69
2023-01-28T12:14:49.259Z,80.39
2023-01-28T12:17:26.225Z,81.10
2023-01-28T12:20:02.554Z,81.28
2023-01-28T12:23:01.188Z,81.06
2023-01-28T12:25:40.237Z,81.26
2023-01-28T12:28:17.488Z,81.32
2023-01-28T12:30:59.347Z,81.25
2023-01-28T12:33:41.599Z,82.39
2023-01-28T12:36:17.591Z,81.41
2023-01-28T12:38:51.497Z,82.10
2023-01-28T12:41:20.337Z,81.61
2023-01-28T12:43:56.827Z,81.05
2023-01-28T12:46:33.284Z,81.56
2023-01-28T12:49:04.854Z,81.32
2023-01-28T12:51:37.082Z,81.78
2023-01-28T12:54:08.248Z,82.08
2023-01-28T12:56:39.163Z,82.05
2023-01-28T12:59:13.838Z,82.68
2023-01-28T13:01:44.002Z,82.77
2023-01-28T13:04:19.821Z,83.68
2023-01-28T13:06:50.605Z,83.32
2023-01-28T13:09:21.399Z,84.42
2023-01-28T13:11:51.572Z,84.12
2023-01-28T13:14:25.069Z,84.70
2023-01-28T13:16:53.405Z,84.97
2023-01-28T13:19:26.650Z,85.82
2023-01-28T13:21:54.788Z,85.50
2023-01-28T13:24:32.980Z,86.18
2023-01-28T13:27:12.418Z,85.63
2023-01-28T13:29:42.306Z,86.12
2023-01-28T13:32:32.448Z,86.34
2023-01-28T13:35:03.539Z,86.66
2023-01-28T13:37:34.175Z,85.92
2023-01-28T13:40:06.149Z,85.75
2023-01-28T13:42:34.350Z,85.20
2023-01-28T13:45:25.488Z,83.87
2023-01-28T13:47:56.322Z,84.27
2023-01-28T13:50:26.928Z,84.21
2023-01-28T13:52:59.600Z,84.65
2023-01-28T13:55:43.369Z,85.22
2023-01-28T13:58:47.514Z,84.98
2023-01-28T14:01:33.095Z,84.38
2023-01-28T14:04:36.861Z,83.98
2023-01-28T14:07:25.067Z,83.37
2023-01-28T14:10:20.216Z,83.01
2023-01-28T14:13:03.234Z,82.41
2023-01-28T14:15:47.631Z,83.04
2023-01-28T14:18:24.529Z,82.90
2023-01-28T14:20:54.296Z,83.60
2023-01-28T14:23:23.379Z,84.11
2023-01-28T14:26:00.542Z,84.17
2023-01-28T14:28:37.113Z,83.90
2023-01-28T14:31:09.096Z,83.61
2023-01-28T14:33:39.062Z,83.29
2023-01-28T14:36:08.271Z,82.19
2023-01-28T14:38:42.248Z,81.93
2023-01-28T14:41:10.642Z,82.18
2023-01-28T14:43:40.056Z,81.87
2023-01-28T14:46:20.655Z,81.40
2023-01-28T14:48:58.758Z,81.32
2023-01-28T14:51:40.987Z,82.16
2023-01-28T14:54:20.922Z,81.31
2023-01-28T14:57:00.471Z,81.98
2023-01-28T14:59:32.978Z,82.05
2023-01-28T15:02:03.178Z,80.92
2023-01-28T15:04:35.746Z,81.42
2023-01-28T15:07:17.855Z,81.18
2023-01-28T15:09:46.489Z,80.88
2023-01-28T15:12:15.828Z,80.39
2023-01-28T15:14:44.521Z,80.33
2023-01-28T15:17:25.411Z,80.31
2023-01-28T15:19:56.518Z,80.59
2023-01-28T15:22:29.106Z,81.09
2023-01-28T15:24:57.572Z,80.30
2023-01-28T15:27:29.522Z,80.16
2023-01-28T15:29:58.807Z,80.26
2023-01-28T15:32:28.528Z,80.01
2023-01-28T15:35:00.291Z,78.40
2023-01-28T15:37:28.536Z,78.96
2023-01-28T15:40:06.021Z,79.25
2023-01-28T15:42:34.448Z,78.81
2023-01-28T15:45:03.320Z,79.23
2023-01-28T15:47:33.980Z,80.03
2023-01-28T15:50:05.650Z,80.29
2023-01-28T15:52:35.474Z,80.66
2023-01-28T15:55:06.537Z,81.35
2023-01-28T15:57:36.041Z,81.31
2023-01-28T16:00:13.224Z,80.58
2023-01-28T16:02:45.059Z,80.10
2023-01-28T16:05:29.515Z,80.78
2023-01-28T16:07:58.885Z,80.15
2023-01-28T16:10:29.418Z,80.24
2023-01-28T16:13:05.319Z,80.74
2023-01-28T16:15:33.734Z,80.72
2023-01-28T16:18:04.003Z,80.08
2023-01-28T16:20:34.072Z,80.44
2023-01-28T16:23:03.914Z,80.05
2023-01-28T16:25:33.602Z,79.49
2023-01-28T16:28:03.339Z,79.66
2023-01-28T16:30:31.469Z,80.01
2023-01-28T16:33:00.303Z,79.58
2023-01-28T16:35:46.903Z,79.65
2023-01-28T16:38:19.913Z,80.16
2023-01-28T16:40:48.710Z,79.53
2023-01-28T16:43:17.816Z,79.31
2023-01-28T16:45:47.001Z,79.35
2023-01-28T16:48:15.126Z,79.58
2023-01-28T16:50:44.199Z,78.80
2023-01-28T16:53:20.638Z,79.03
2023-01-28T16:55:50.858Z,78.79
2023-01-28T16:58:22.259Z,78.24
2023-01-28T17:00:50.570Z,78.35
2023-01-28T17:03:18.816Z,79.42
2023-01-28T17:05:47.164Z,79.04
2023-01-28T17:08:15.448Z,79.07
2023-01-28T17:10:45.193Z,79.12
2023-01-28T17:13:13.433Z,78.99
2023-01-28T17:15:42.693Z,79.02
2023-01-28T17:18:11.265Z,78.67
2023-01-28T17:20:40.415Z,78.81
2023-01-28T17:23:09.153Z,78.25
2023-01-28T17:25:39.251Z,78.01
2023-01-28T17:28:09.900Z,78.36
2023-01-28T17:30:41.271Z,78.68
2023-01-28T17:33:10.484Z,78.97
2023-01-28T17:35:38.827Z,78.00
2023-01-28T17:38:07.310Z,78.40
2023-01-28T17:40:35.418Z,78.68
2023-01-28T17:43:03.678Z,78.45
2023-01-28T17:45:33.601Z,79.02
2023-01-28T17:48:02.296Z,78.76
2023-01-28T17:50:30.596Z,78.58
2023-01-28T17:52:59.018Z,78.66
2023-01-28T17:55:27.558Z,78.55
2023-01-28T17:57:55.762Z,78.39
2023-01-28T18:00:26.226Z,78.36
2023-01-28T18:02:55.773Z,77.95
2023-01-28T18:05:24.067Z,78.45
2023-01-28T18:09:42.894Z,78.44
2023-01-28T18:12:15.449Z,78.66
2023-01-28T18:14:43.900Z,78.21
2023-01-28T18:17:12.624Z,78.46
2023-01-28T18:19:41.113Z,78.49
2023-01-28T18:22:09.904Z,78.32
2023-01-28T18:24:38.239Z,78.03
2023-01-28T18:27:08.026Z,79.06
2023-01-28T18:29:36.332Z,78.32
2023-01-28T18:32:06.381Z,78.45
2023-01-28T18:34:35.067Z,78.29
2023-01-28T18:37:06.551Z,79.13
2023-01-28T18:39:35.450Z,78.81
2023-01-28T18:42:03.886Z,78.41
2023-01-28T18:44:33.661Z,78.62
2023-01-28T18:47:01.897Z,78.62
2023-01-28T18:49:30.232Z,79.21
2023-01-28T18:51:59.453Z,79.36
2023-01-28T18:54:27.827Z,79.02
2023-01-28T18:56:56.516Z,78.64
2023-01-28T18:59:25.085Z,79.03
2023-01-28T19:01:55.131Z,78.86
2023-01-28T19:04:23.651Z,78.91
2023-01-28T19:06:52.099Z,78.95
2023-01-28T19:09:20.965Z,78.56
2023-01-28T19:11:50.803Z,79.07
2023-01-28T19:14:19.385Z,79.14
2023-01-28T19:16:47.981Z,78.85
2023-01-28T19:19:17.766Z,78.76
2023-01-28T19:21:46.108Z,78.99
2023-01-28T19:24:14.992Z,78.38
2023-01-28T19:26:45.425Z,78.90
2023-01-28T19:29:16.239Z,79.22
2023-01-28T19:31:48.618Z,78.98
2023-01-28T19:34:18.605Z,79.11
2023-01-28T19:36:47.600Z,78.78
2023-01-28T19:39:16.740Z,78.52
2023-01-28T19:41:45.814Z,78.53
2023-01-28T19:44:14.215Z,78.88
2023-01-28T19:46:42.756Z,78.61
2023-01-28T19:49:12.566Z,79.19
2023-01-28T19:51:42.301Z,78.92
2023-01-28T19:54:10.867Z,79.76
2023-01-28T19:56:39.229Z,79.40
2023-01-28T19:59:07.723Z,79.73
2023-01-28T20:01:36.768Z,79.32
2023-01-28T20:04:05.799Z,79.27
2023-01-28T20:06:35.927Z,79.40
2023-01-28T20:09:08.580Z,79.35
2023-01-28T20:11:37.787Z,79.43
2023-01-28T20:14:06.198Z,79.54
2023-01-28T20:16:36.716Z,79.69
2023-01-28T20:19:07.467Z,79.81
2023-01-28T20:21:36.980Z,79.59
2023-01-28T20:24:07.915Z,79.80
2023-01-28T20:26:39.027Z,79.55
2023-01-28T20:29:10.669Z,79.32
2023-01-28T20:31:41.696Z,79.43
2023-01-28T20:34:17.097Z,80.06
2023-01-28T20:36:46.206Z,79.43
2023-01-28T20:39:16.200Z,79.84
2023-01-28T20:41:44.850Z,79.60
2023-01-28T20:44:13.282Z,79.72
2023-01-28T20:46:41.655Z,79.69
2023-01-28T20:49:10.733Z,79.61
2023-01-28T20:51:39.411Z,79.77
2023-01-28T20:54:07.755Z,79.33
2023-01-28T20:56:37.542Z,79.84
2023-01-28T20:59:07.568Z,80.25
2023-01-28T21:01:37.022Z,79.85
2023-01-28T21:04:09.659Z,79.70
2023-01-28T21:06:39.862Z,78.99
2023-01-28T21:09:08.960Z,78.90
2023-01-28T21:11:38.697Z,78.10
2023-01-28T21:14:07.188Z,78.10
2023-01-28T21:16:41.070Z,78.65
2023-01-28T21:19:09.642Z,78.22
2023-01-28T21:21:37.975Z,78.20
2023-01-28T21:24:08.231Z,77.81
2023-01-28T21:26:38.035Z,77.75
2023-01-28T21:29:06.867Z,77.96
2023-01-28T21:31:35.243Z,77.47
2023-01-28T21:34:03.775Z,77.43
2023-01-28T21:36:34.271Z,78.11
2023-01-28T21:39:03.425Z,78.09
2023-01-28T21:41:32.847Z,77.71
2023-01-28T21:44:03.047Z,77.75
2023-01-28T21:46:34.737Z,77.71
2023-01-28T21:49:05.489Z,77.61
2023-01-28T21:51:39.103Z,77.84
2023-01-28T21:54:11.114Z,77.45
2023-01-28T21:56:39.565Z,77.50
2023-01-28T21:59:29.697Z,77.42
2023-01-28T22:01:59.846Z,76.98
2023-01-28T22:04:32.577Z,76.88
2023-01-28T22:07:02.276Z,77.44
2023-01-28T22:09:31.177Z,77.38
2023-01-28T22:11:59.583Z,77.18
2023-01-28T22:14:29.220Z,77.04
2023-01-28T22:16:57.917Z,76.71
2023-01-28T22:19:26.437Z,76.63
2023-01-28T22:21:54.813Z,76.44
2023-01-28T22:24:25.303Z,76.52
2023-01-28T22:26:54.590Z,76.45
2023-01-28T22:29:24.612Z,76.75
2023-01-28T22:31:55.631Z,76.88
2023-01-28T22:34:24.509Z,76.20
2023-01-28T22:36:53.252Z,76.10
2023-01-28T22:39:22.086Z,76.31
2023-01-28T22:41:50.481Z,76.16
2023-01-28T22:44:19.931Z,76.07
2023-01-28T22:46:48.827Z,76.53
2023-01-28T22:49:18.499Z,76.43
2023-01-28T22:51:47.115Z,76.28
2023-01-28T22:54:15.638Z,76.33
2023-01-28T22:56:44.211Z,75.86
2023-01-28T22:59:12.919Z,75.99
2023-01-28T23:01:41.730Z,76.09
2023-01-28T23:04:10.117Z,76.06
2023-01-28T23:06:39.992Z,75.73
2023-01-28T23:09:08.351Z,75.65
2023-01-28T23:11:36.979Z,75.56
2023-01-28T23:14:23.435Z,75.84
2023-01-28T23:17:09.955Z,75.58
2023-01-28T23:19:56.110Z,75.40
2023-01-28T23:22:52.162Z,74.59
2023-01-28T23:25:21.245Z,74.80
2023-01-28T23:27:49.658Z,74.92
2023-01-28T23:30:24.433Z,75.27
2023-01-28T23:32:57.485Z,75.10
2023-01-28T23:35:26.535Z,74.64
2023-01-28T23:37:56.791Z,74.10
2023-01-28T23:40:27.119Z,74.42
2023-01-28T23:42:57.036Z,74.71
2023-01-28T23:45:25.482Z,74.17
2023-01-28T23:47:53.808Z,74.62
2023-01-28T23:50:22.914Z,74.32
2023-01-28T23:52:51.180Z,74.71
2023-01-28T23:55:21.035Z,74.03
2023-01-28T23:57:49.315Z,74.38
